Dixon, South Dakota
Current Conditions -  °F | °C
As of 1:53 PM on Friday 21 Nov 2014 (Local Time) from KICR Reporting Station
Clear Clear  
Wind Chill: 41°   Ceiling: Unl
Heat Index: 45°   Visibility: 10mi
Dew Point: 31°   Wind: 8mph
Humidity: 58%   Direction: 240°WSW
Pressure: 29.83"   Gusts: NA
Location:  43.2419°N, 99.4287°W
Report Text: KICR 211953Z AUTO 24007KT 10SM CLR 07/M01 A2983 RMK AO2 SLP115 T00721006
Loading
Personal Weather Stations






























Interactive Weather Map New forecast layout! Learn more

10-Day Weather Forecast

Advertisements
Track Severe Weather on mobile